Time;durP1;ratioP1;P1;durP2;ratioP2;P2;SDS_P1;SDS_P2;PMS_P1;PMS_P2;Temp;Humidity;BMP_temperature;BMP_pressure;BME280_temperature;BME280_humidity;BME280_pressure;Samples;Min_cycle;Max_cycle;Signal;HPM_P1;HPM_P2
2023/09/09 00:02:11;;;;;;;15.80;8.18;;;;;;;;;;6188105;23;20013;-44
2023/09/09 00:04:40;;;;;;;19.67;9.23;;;;;;;;;;6173870;23;20017;-43
2023/09/09 00:07:11;;;;;;;17.48;9.57;;;;;;;;;;6193229;23;20088;-42
2023/09/09 00:09:41;;;;;;;18.63;9.80;;;;;;;;;;6172649;23;20107;-41
2023/09/09 00:12:08;;;;;;;20.27;9.87;;;;;;;;;;6187444;23;20040;-41
2023/09/09 00:14:37;;;;;;;14.35;9.35;;;;;;;;;;6184112;23;20690;-41
2023/09/09 00:17:05;;;;;;;17.67;9.85;;;;;;;;;;6184794;23;20040;-42
2023/09/09 00:19:35;;;;;;;17.33;8.57;;;;;;;;;;6171937;23;20055;-41
2023/09/09 00:22:02;;;;;;;14.38;8.82;;;;;;;;;;6182496;23;20070;-42
2023/09/09 00:24:30;;;;;;;22.00;9.00;;;;;;;;;;6192273;23;20013;-42
2023/09/09 00:26:59;;;;;;;13.68;9.85;;;;;;;;;;6182483;23;20380;-42
2023/09/09 00:29:27;;;;;;;13.05;8.90;;;;;;;;;;6186188;23;20023;-43
2023/09/09 00:31:55;;;;;;;16.38;9.48;;;;;;;;;;6181846;23;20016;-42
2023/09/09 00:34:23;;;;;;;19.45;9.98;;;;;;;;;;6182340;23;20067;-44
2023/09/09 00:36:52;;;;;;;13.67;9.47;;;;;;;;;;6185610;23;20020;-41
2023/09/09 00:39:20;;;;;;;19.90;10.77;;;;;;;;;;6184564;23;20021;-42
2023/09/09 00:41:49;;;;;;;16.42;10.52;;;;;;;;;;6184292;23;20019;-42
2023/09/09 00:44:18;;;;;;;13.93;10.50;;;;;;;;;;6190215;23;20120;-41
2023/09/09 00:46:45;;;;;;;16.92;10.02;;;;;;;;;;6176022;23;20036;-46
2023/09/09 00:49:13;;;;;;;16.07;10.30;;;;;;;;;;6193753;23;20020;-41
2023/09/09 00:51:44;;;;;;;18.75;11.05;;;;;;;;;;6180087;23;20075;-41
2023/09/09 00:54:13;;;;;;;15.75;9.95;;;;;;;;;;6187224;23;20032;-41
2023/09/09 00:56:42;;;;;;;17.35;10.88;;;;;;;;;;6176513;23;20743;-43
2023/09/09 00:59:10;;;;;;;15.75;10.40;;;;;;;;;;6188068;23;20325;-43
2023/09/09 01:01:38;;;;;;;16.23;10.87;;;;;;;;;;6180234;23;20017;-44
2023/09/09 01:04:06;;;;;;;21.73;11.40;;;;;;;;;;6187124;23;20352;-42
2023/09/09 01:06:34;;;;;;;18.55;10.70;;;;;;;;;;6180919;23;20016;-44
2023/09/09 01:09:05;;;;;;;24.40;11.48;;;;;;;;;;6185588;23;20012;-42
2023/09/09 01:11:34;;;;;;;18.75;10.90;;;;;;;;;;6182648;23;20144;-43
2023/09/09 01:14:05;;;;;;;19.37;12.10;;;;;;;;;;6192380;23;20020;-43
2023/09/09 01:16:34;;;;;;;21.25;11.77;;;;;;;;;;6186191;23;20012;-42
2023/09/09 01:19:02;;;;;;;19.58;12.77;;;;;;;;;;6175994;23;20321;-43
2023/09/09 01:21:31;;;;;;;17.42;11.70;;;;;;;;;;6178060;23;20019;-45
2023/09/09 01:24:01;;;;;;;20.90;13.02;;;;;;;;;;6192789;23;20340;-43
2023/09/09 01:26:29;;;;;;;17.73;13.23;;;;;;;;;;6172994;23;20047;-42
2023/09/09 01:28:57;;;;;;;20.25;13.10;;;;;;;;;;6175793;23;20092;-42
2023/09/09 01:31:25;;;;;;;22.05;13.77;;;;;;;;;;6186037;23;20324;-42
2023/09/09 01:33:56;;;;;;;19.63;13.75;;;;;;;;;;6186692;23;20444;-42
2023/09/09 01:36:24;;;;;;;19.25;13.93;;;;;;;;;;6179294;23;20036;-46
2023/09/09 01:38:52;;;;;;;24.20;14.10;;;;;;;;;;6188332;23;20020;-42
2023/09/09 01:41:21;;;;;;;17.65;12.00;;;;;;;;;;6161321;23;20009;-43
2023/09/09 01:43:48;;;;;;;18.63;12.15;;;;;;;;;;6181972;23;20303;-42
2023/09/09 01:46:17;;;;;;;15.73;11.20;;;;;;;;;;6186686;23;20017;-45
2023/09/09 01:48:44;;;;;;;19.85;12.27;;;;;;;;;;6166077;23;20526;-44
2023/09/09 01:51:12;;;;;;;18.53;12.30;;;;;;;;;;6186496;23;20027;-43
2023/09/09 01:53:40;;;;;;;20.63;13.05;;;;;;;;;;6184831;23;20024;-43
2023/09/09 01:56:07;;;;;;;20.88;13.18;;;;;;;;;;6186190;23;20019;-43
2023/09/09 01:58:37;;;;;;;23.33;12.23;;;;;;;;;;6190004;23;20012;-41
2023/09/09 02:01:05;;;;;;;23.00;11.98;;;;;;;;;;6190330;23;20012;-42
2023/09/09 02:03:33;;;;;;;20.80;12.67;;;;;;;;;;6184730;23;20023;-44
2023/09/09 02:06:01;;;;;;;20.38;12.77;;;;;;;;;;6192692;23;20047;-43
2023/09/09 02:08:29;;;;;;;21.30;12.45;;;;;;;;;;6191398;23;20052;-42
2023/09/09 02:10:57;;;;;;;22.23;13.48;;;;;;;;;;6161086;23;20020;-42
2023/09/09 02:13:26;;;;;;;23.85;13.52;;;;;;;;;;6184732;23;20067;-42
2023/09/09 02:16:03;;;;;;;21.00;13.57;;;;;;;;;;6173088;23;20020;-41
2023/09/09 02:18:31;;;;;;;19.85;13.05;;;;;;;;;;6195575;23;20049;-43
2023/09/09 02:20:59;;;;;;;21.13;12.85;;;;;;;;;;6188451;23;20447;-41
2023/09/09 02:23:28;;;;;;;17.90;11.82;;;;;;;;;;6191909;23;20027;-43
2023/09/09 02:25:56;;;;;;;17.00;10.95;;;;;;;;;;6190911;23;20436;-43
2023/09/09 02:28:24;;;;;;;19.20;11.00;;;;;;;;;;6184363;23;20032;-41
2023/09/09 02:30:52;;;;;;;17.05;10.52;;;;;;;;;;6191705;23;20020;-42
2023/09/09 02:33:21;;;;;;;17.42;11.73;;;;;;;;;;6180631;23;20435;-44
2023/09/09 02:35:49;;;;;;;19.15;11.50;;;;;;;;;;6186793;23;20111;-43
2023/09/09 02:38:17;;;;;;;16.75;11.15;;;;;;;;;;6181560;23;20756;-41
2023/09/09 02:40:45;;;;;;;16.87;10.50;;;;;;;;;;6185819;23;20087;-41
2023/09/09 02:43:13;;;;;;;16.23;11.18;;;;;;;;;;6180993;23;20335;-42
2023/09/09 02:45:40;;;;;;;16.60;10.88;;;;;;;;;;6186852;23;20024;-44
2023/09/09 02:48:08;;;;;;;15.95;10.85;;;;;;;;;;6185345;23;20009;-42
2023/09/09 02:50:38;;;;;;;15.38;10.40;;;;;;;;;;6186413;23;20020;-41
2023/09/09 02:53:06;;;;;;;16.50;11.97;;;;;;;;;;6193756;23;20028;-44
2023/09/09 02:55:33;;;;;;;20.13;11.23;;;;;;;;;;6183459;23;20012;-41
2023/09/09 02:58:02;;;;;;;15.77;11.18;;;;;;;;;;6171982;23;20335;-42
2023/09/09 03:00:31;;;;;;;17.15;11.68;;;;;;;;;;6190933;23;20378;-43
2023/09/09 03:02:59;;;;;;;20.25;13.00;;;;;;;;;;6194630;23;20506;-42
2023/09/09 03:05:26;;;;;;;17.63;12.43;;;;;;;;;;6194289;23;20024;-43
2023/09/09 03:07:58;;;;;;;19.75;12.70;;;;;;;;;;6183629;23;20032;-42
2023/09/09 03:10:26;;;;;;;17.88;12.60;;;;;;;;;;6195122;23;20017;-45
2023/09/09 03:12:56;;;;;;;23.95;13.63;;;;;;;;;;6187668;23;20024;-43
2023/09/09 03:15:24;;;;;;;22.42;13.93;;;;;;;;;;6193154;23;20440;-42
2023/09/09 03:17:52;;;;;;;20.37;14.87;;;;;;;;;;6186025;23;20023;-43
2023/09/09 03:20:20;;;;;;;22.77;15.07;;;;;;;;;;6196811;23;20054;-41
2023/09/09 03:22:50;;;;;;;21.40;14.30;;;;;;;;;;6180097;23;20805;-43
2023/09/09 03:25:20;;;;;;;27.58;15.18;;;;;;;;;;6198475;23;20024;-44
2023/09/09 03:27:48;;;;;;;23.00;13.30;;;;;;;;;;6178459;23;20545;-42
2023/09/09 03:30:16;;;;;;;18.80;12.97;;;;;;;;;;6190836;23;20017;-41
2023/09/09 03:32:44;;;;;;;17.90;13.40;;;;;;;;;;6186076;23;20577;-43
2023/09/09 03:35:11;;;;;;;22.27;14.60;;;;;;;;;;6195215;23;20025;-42
2023/09/09 03:37:39;;;;;;;22.70;15.63;;;;;;;;;;6181832;23;20020;-41
2023/09/09 03:40:07;;;;;;;25.13;16.83;;;;;;;;;;6195329;23;20017;-42
2023/09/09 03:42:38;;;;;;;25.67;15.70;;;;;;;;;;6184099;23;20012;-41
2023/09/09 03:45:06;;;;;;;23.77;15.00;;;;;;;;;;6197152;23;20512;-47
2023/09/09 03:47:37;;;;;;;21.25;13.50;;;;;;;;;;6188087;23;20079;-44
2023/09/09 03:50:07;;;;;;;18.08;12.27;;;;;;;;;;6188975;23;20055;-42
2023/09/09 03:52:35;;;;;;;16.20;12.23;;;;;;;;;;6193390;23;20463;-41
2023/09/09 03:55:03;;;;;;;18.10;12.10;;;;;;;;;;6188292;23;20047;-43
2023/09/09 03:57:31;;;;;;;22.95;13.80;;;;;;;;;;6191706;23;20020;-43
2023/09/09 04:00:00;;;;;;;19.38;13.30;;;;;;;;;;6184726;23;20024;-41
2023/09/09 04:02:28;;;;;;;17.50;11.38;;;;;;;;;;6196461;23;20024;-43
2023/09/09 04:04:56;;;;;;;16.42;11.02;;;;;;;;;;6182979;23;20022;-42
2023/09/09 04:07:25;;;;;;;16.63;10.17;;;;;;;;;;6188060;23;20348;-41
2023/09/09 04:09:53;;;;;;;13.15;10.70;;;;;;;;;;6191282;23;20023;-42
2023/09/09 04:12:22;;;;;;;17.38;10.90;;;;;;;;;;6184564;23;20437;-42
2023/09/09 04:14:50;;;;;;;15.20;12.13;;;;;;;;;;6189599;23;20091;-41
2023/09/09 04:17:19;;;;;;;19.73;13.13;;;;;;;;;;6185430;23;20024;-41
2023/09/09 04:19:47;;;;;;;17.43;14.10;;;;;;;;;;6190035;23;20062;-41
2023/09/09 04:22:17;;;;;;;18.83;14.23;;;;;;;;;;6188273;23;20017;-42
2023/09/09 04:24:45;;;;;;;19.70;14.57;;;;;;;;;;6186440;23;20023;-41
2023/09/09 04:27:13;;;;;;;20.65;15.40;;;;;;;;;;6194161;23;20020;-43
2023/09/09 04:29:41;;;;;;;20.40;16.05;;;;;;;;;;6179523;23;20523;-41
2023/09/09 04:32:09;;;;;;;21.87;16.17;;;;;;;;;;6196409;23;20012;-42
2023/09/09 04:34:38;;;;;;;22.63;15.65;;;;;;;;;;6179451;23;20028;-42
2023/09/09 04:37:06;;;;;;;21.10;15.57;;;;;;;;;;6191804;23;20017;-42
2023/09/09 04:39:34;;;;;;;22.05;15.98;;;;;;;;;;6188075;23;20022;-42
2023/09/09 04:42:04;;;;;;;21.17;15.50;;;;;;;;;;6193896;23;20017;-43
2023/09/09 04:44:33;;;;;;;20.63;15.00;;;;;;;;;;6191556;23;20020;-41
2023/09/09 04:47:01;;;;;;;20.90;14.13;;;;;;;;;;6186185;23;20012;-43
2023/09/09 04:49:28;;;;;;;25.88;14.80;;;;;;;;;;6193873;23;20063;-41
2023/09/09 04:51:58;;;;;;;23.55;14.45;;;;;;;;;;6177508;23;20599;-43
2023/09/09 04:54:25;;;;;;;19.00;14.02;;;;;;;;;;6183207;23;20021;-42
2023/09/09 04:56:53;;;;;;;21.27;13.83;;;;;;;;;;6172663;23;20020;-41
2023/09/09 04:59:22;;;;;;;19.95;14.68;;;;;;;;;;6186832;23;20020;-41
2023/09/09 05:01:49;;;;;;;19.17;14.27;;;;;;;;;;6182482;23;20016;-41
2023/09/09 05:04:17;;;;;;;19.73;13.88;;;;;;;;;;6183203;23;20025;-44
2023/09/09 05:06:45;;;;;;;22.20;14.82;;;;;;;;;;6186752;23;20012;-42
2023/09/09 05:09:14;;;;;;;20.93;13.87;;;;;;;;;;6181030;23;20027;-44
2023/09/09 05:11:42;;;;;;;22.77;14.98;;;;;;;;;;6185618;23;20678;-42
2023/09/09 05:14:09;;;;;;;22.75;15.85;;;;;;;;;;6172476;23;20549;-41
2023/09/09 05:16:37;;;;;;;23.30;16.55;;;;;;;;;;6188372;23;20023;-43
2023/09/09 05:19:06;;;;;;;23.55;15.25;;;;;;;;;;6175813;23;20016;-41
2023/09/09 05:21:34;;;;;;;24.17;16.40;;;;;;;;;;6186206;23;20016;-42
2023/09/09 05:24:02;;;;;;;28.45;17.40;;;;;;;;;;6183763;23;20340;-42
2023/09/09 05:26:31;;;;;;;24.25;16.45;;;;;;;;;;6171898;23;20487;-43
2023/09/09 05:29:00;;;;;;;21.83;14.30;;;;;;;;;;6184176;23;20384;-43
2023/09/09 05:31:27;;;;;;;18.38;12.55;;;;;;;;;;6174801;23;20042;-41
2023/09/09 05:33:55;;;;;;;21.10;11.83;;;;;;;;;;6183057;23;20340;-41
2023/09/09 05:36:23;;;;;;;17.27;12.20;;;;;;;;;;6182453;23;20016;-43
2023/09/09 05:38:51;;;;;;;21.55;14.07;;;;;;;;;;6183266;23;20516;-42
2023/09/09 05:41:21;;;;;;;22.20;14.45;;;;;;;;;;6186370;23;20099;-43
2023/09/09 05:43:51;;;;;;;23.92;15.13;;;;;;;;;;6177517;23;20025;-42
2023/09/09 05:46:18;;;;;;;22.90;17.13;;;;;;;;;;6185275;23;20043;-43
2023/09/09 05:48:46;;;;;;;27.45;16.13;;;;;;;;;;6187201;23;20020;-44
2023/09/09 05:51:17;;;;;;;32.63;17.35;;;;;;;;;;6189732;23;20364;-42
2023/09/09 05:53:48;;;;;;;21.67;14.18;;;;;;;;;;6186714;23;20079;-42
2023/09/09 05:56:16;;;;;;;24.90;14.00;;;;;;;;;;6177707;23;20016;-42
2023/09/09 05:58:43;;;;;;;26.20;14.17;;;;;;;;;;6186066;23;20048;-41
2023/09/09 06:01:12;;;;;;;21.98;13.80;;;;;;;;;;6179703;23;20019;-41
2023/09/09 06:03:40;;;;;;;24.60;14.88;;;;;;;;;;6183219;23;20020;-44
2023/09/09 06:06:08;;;;;;;24.38;15.52;;;;;;;;;;6176881;23;20637;-46
2023/09/09 06:08:36;;;;;;;22.88;14.60;;;;;;;;;;6166575;23;20104;-41
2023/09/09 06:11:04;;;;;;;22.57;14.63;;;;;;;;;;6177604;23;20028;-41
2023/09/09 06:13:36;;;;;;;25.08;14.73;;;;;;;;;;6172100;23;20123;-42
2023/09/09 06:16:04;;;;;;;25.65;16.92;;;;;;;;;;6186661;23;20056;-42
2023/09/09 06:18:34;;;;;;;29.73;16.65;;;;;;;;;;6175721;23;20087;-41
2023/09/09 06:21:01;;;;;;;27.05;18.02;;;;;;;;;;6174601;23;20016;-43
2023/09/09 06:23:30;;;;;;;26.90;17.87;;;;;;;;;;6187878;23;20016;-42
2023/09/09 06:26:00;;;;;;;32.90;20.63;;;;;;;;;;6180556;23;20095;-42
2023/09/09 06:28:27;;;;;;;28.08;17.98;;;;;;;;;;6188083;23;20022;-42
2023/09/09 06:30:55;;;;;;;33.63;19.20;;;;;;;;;;6177099;23;20023;-45
2023/09/09 06:33:23;;;;;;;30.58;20.65;;;;;;;;;;6192857;23;20016;-41
2023/09/09 06:35:52;;;;;;;31.57;20.43;;;;;;;;;;6169102;23;20476;-42
2023/09/09 06:38:20;;;;;;;28.27;19.05;;;;;;;;;;6189955;23;20023;-42
2023/09/09 06:40:48;;;;;;;27.50;20.23;;;;;;;;;;6181982;23;20024;-42
2023/09/09 06:43:17;;;;;;;28.70;20.63;;;;;;;;;;6188046;23;20016;-41
2023/09/09 06:45:45;;;;;;;33.67;22.08;;;;;;;;;;6181498;23;20017;-41
2023/09/09 06:48:16;;;;;;;37.33;21.40;;;;;;;;;;6186644;23;20021;-42
2023/09/09 06:50:45;;;;;;;29.67;20.65;;;;;;;;;;6178533;23;20024;-43
2023/09/09 06:53:16;;;;;;;30.50;19.20;;;;;;;;;;6179481;23;20505;-43
2023/09/09 06:55:44;;;;;;;25.95;16.38;;;;;;;;;;6185562;23;20391;-42
2023/09/09 06:58:13;;;;;;;28.83;17.88;;;;;;;;;;6186293;23;20043;-43
2023/09/09 07:00:42;;;;;;;23.13;15.90;;;;;;;;;;6177150;23;20659;-43
2023/09/09 07:03:10;;;;;;;27.17;15.75;;;;;;;;;;6183098;23;20020;-44
2023/09/09 07:05:40;;;;;;;23.15;15.75;;;;;;;;;;6188435;23;20078;-41
2023/09/09 07:08:07;;;;;;;21.13;15.20;;;;;;;;;;6174903;23;20436;-42
2023/09/09 07:10:36;;;;;;;23.83;16.42;;;;;;;;;;6188237;23;20255;-44
2023/09/09 07:13:04;;;;;;;29.27;17.80;;;;;;;;;;6184464;23;20078;-41
2023/09/09 07:15:34;;;;;;;26.45;17.30;;;;;;;;;;6182290;23;20025;-43
2023/09/09 07:18:03;;;;;;;30.98;17.58;;;;;;;;;;6181531;23;20013;-42
2023/09/09 07:20:31;;;;;;;26.48;18.10;;;;;;;;;;6187637;23;20016;-43
2023/09/09 07:22:59;;;;;;;32.67;18.98;;;;;;;;;;6176057;23;20012;-41
2023/09/09 07:25:26;;;;;;;27.73;19.20;;;;;;;;;;6189283;23;20016;-42
2023/09/09 07:27:56;;;;;;;30.02;19.85;;;;;;;;;;6179081;23;20059;-41
2023/09/09 07:30:23;;;;;;;29.33;20.50;;;;;;;;;;6183999;23;20063;-42
2023/09/09 07:32:51;;;;;;;29.23;20.10;;;;;;;;;;6182314;23;20017;-41
2023/09/09 07:35:19;;;;;;;30.15;18.80;;;;;;;;;;6176277;23;20021;-42
2023/09/09 07:37:47;;;;;;;27.87;18.23;;;;;;;;;;6182165;23;20040;-41
2023/09/09 07:40:18;;;;;;;27.42;19.08;;;;;;;;;;6182203;23;20013;-41
2023/09/09 07:42:46;;;;;;;32.97;18.58;;;;;;;;;;6172929;23;20479;-41
2023/09/09 07:45:15;;;;;;;31.67;20.08;;;;;;;;;;6181596;23;20043;-41
2023/09/09 07:47:43;;;;;;;26.45;19.48;;;;;;;;;;6183617;23;20017;-43
2023/09/09 07:50:11;;;;;;;31.47;19.63;;;;;;;;;;6176546;23;20442;-42
2023/09/09 07:52:39;;;;;;;32.33;18.98;;;;;;;;;;6174133;23;20012;-43
2023/09/09 07:55:07;;;;;;;28.70;19.35;;;;;;;;;;6192804;23;20028;-41
2023/09/09 07:57:35;;;;;;;32.70;18.08;;;;;;;;;;6180877;23;20012;-42
2023/09/09 08:00:07;;;;;;;27.40;17.83;;;;;;;;;;6182210;23;20440;-42
2023/09/09 08:02:36;;;;;;;32.73;17.93;;;;;;;;;;6178680;23;20345;-44
2023/09/09 08:05:06;;;;;;;26.63;16.88;;;;;;;;;;6187942;23;20415;-41
2023/09/09 08:07:34;;;;;;;29.77;16.85;;;;;;;;;;6183992;23;20029;-42
2023/09/09 08:10:02;;;;;;;24.00;13.25;;;;;;;;;;6176469;23;20083;-43
2023/09/09 08:12:30;;;;;;;22.50;12.13;;;;;;;;;;6187654;23;20020;-43
2023/09/09 08:15:04;;;;;;;22.37;11.67;;;;;;;;;;6177213;23;20150;-41
2023/09/09 08:17:32;;;;;;;23.65;10.30;;;;;;;;;;6179201;23;20337;-43
2023/09/09 08:20:05;;;;;;;22.33;11.35;;;;;;;;;;6184953;23;20027;-43
2023/09/09 08:22:34;;;;;;;27.83;11.93;;;;;;;;;;6166196;23;20012;-42
2023/09/09 08:25:02;;;;;;;21.88;12.10;;;;;;;;;;6188542;23;20035;-42
2023/09/09 08:27:29;;;;;;;22.07;11.60;;;;;;;;;;6180159;23;20099;-42
2023/09/09 08:29:57;;;;;;;24.58;12.18;;;;;;;;;;6182034;23;20083;-42
2023/09/09 08:32:25;;;;;;;24.08;11.40;;;;;;;;;;6173965;23;20027;-42
2023/09/09 08:34:53;;;;;;;23.77;10.77;;;;;;;;;;6175830;23;20021;-43
2023/09/09 08:37:22;;;;;;;22.33;10.13;;;;;;;;;;6178612;23;20456;-42
2023/09/09 08:39:52;;;;;;;27.03;11.13;;;;;;;;;;6182437;23;20031;-44
2023/09/09 08:42:24;;;;;;;21.25;10.35;;;;;;;;;;6176976;23;20016;-42
2023/09/09 08:44:59;;;;;;;22.58;10.85;;;;;;;;;;6182010;23;20127;-42
2023/09/09 08:47:29;;;;;;;20.85;9.30;;;;;;;;;;6178368;23;20387;-43
2023/09/09 08:50:00;;;;;;;21.45;9.90;;;;;;;;;;6181323;23;20471;-42
2023/09/09 08:52:28;;;;;;;13.83;6.17;;;;;;;;;;6186916;23;20021;-42
2023/09/09 08:54:56;;;;;;;20.08;9.73;;;;;;;;;;6165448;23;20276;-43
2023/09/09 08:57:25;;;;;;;21.10;9.95;;;;;;;;;;6184993;23;20448;-45
2023/09/09 08:59:54;;;;;;;19.23;9.43;;;;;;;;;;6178786;23;20115;-42
2023/09/09 09:02:21;;;;;;;20.17;9.27;;;;;;;;;;6176547;23;20013;-41
2023/09/09 09:04:50;;;;;;;23.07;8.50;;;;;;;;;;6174722;23;20012;-41
2023/09/09 09:07:18;;;;;;;27.92;9.25;;;;;;;;;;6187981;23;20095;-42
2023/09/09 09:09:47;;;;;;;19.30;9.13;;;;;;;;;;6173424;23;20016;-42
2023/09/09 09:12:15;;;;;;;24.00;8.68;;;;;;;;;;6185636;23;20013;-41
2023/09/09 09:14:46;;;;;;;23.80;9.07;;;;;;;;;;6173549;23;20043;-43
2023/09/09 09:17:15;;;;;;;18.33;8.83;;;;;;;;;;6180295;23;20020;-43
2023/09/09 09:19:43;;;;;;;19.48;8.88;;;;;;;;;;6181614;23;20027;-44
2023/09/09 09:22:13;;;;;;;24.40;9.10;;;;;;;;;;6184475;23;20448;-45
2023/09/09 09:24:42;;;;;;;19.55;8.95;;;;;;;;;;6177860;23;20511;-45
2023/09/09 09:27:11;;;;;;;21.85;8.63;;;;;;;;;;6181733;23;20474;-42
2023/09/09 09:29:40;;;;;;;18.47;8.17;;;;;;;;;;6182026;23;20017;-42
2023/09/09 09:32:07;;;;;;;23.98;8.75;;;;;;;;;;6184955;23;20345;-45
2023/09/09 09:34:36;;;;;;;12.60;8.43;;;;;;;;;;6176929;23;20031;-45
2023/09/09 09:37:08;;;;;;;17.02;8.75;;;;;;;;;;6186255;23;20020;-44
2023/09/09 09:39:37;;;;;;;16.00;7.13;;;;;;;;;;6175909;23;20124;-43
2023/09/09 09:42:05;;;;;;;6.07;2.80;;;;;;;;;;6178502;23;20055;-44
2023/09/09 09:44:34;;;;;;;13.85;6.22;;;;;;;;;;6177079;23;20392;-43
2023/09/09 09:47:03;;;;;;;12.35;5.53;;;;;;;;;;6184840;23;20016;-43
2023/09/09 09:49:35;;;;;;;17.13;7.82;;;;;;;;;;6181513;23;20017;-43
2023/09/09 09:52:07;;;;;;;15.02;7.50;;;;;;;;;;6182231;23;20037;-46
2023/09/09 09:54:35;;;;;;;13.80;6.07;;;;;;;;;;6178156;23;20082;-43
2023/09/09 09:57:05;;;;;;;7.32;4.40;;;;;;;;;;6184254;23;20016;-44
2023/09/09 09:59:34;;;;;;;13.90;6.22;;;;;;;;;;6181043;23;20050;-42
2023/09/09 10:02:03;;;;;;;14.73;7.50;;;;;;;;;;6172199;23;20059;-42
2023/09/09 10:04:34;;;;;;;9.48;4.93;;;;;;;;;;6180258;23;20401;-43
2023/09/09 10:07:05;;;;;;;14.57;6.57;;;;;;;;;;6182942;23;20152;-42
2023/09/09 10:09:37;;;;;;;6.78;2.95;;;;;;;;;;6172523;23;20025;-44
2023/09/09 10:12:06;;;;;;;15.48;7.70;;;;;;;;;;6192054;23;20044;-42
2023/09/09 10:14:35;;;;;;;8.25;2.45;;;;;;;;;;6173284;23;20032;-45
2023/09/09 10:17:07;;;;;;;15.57;6.75;;;;;;;;;;6186443;23;20020;-45
2023/09/09 10:19:37;;;;;;;15.27;6.60;;;;;;;;;;6189016;23;20016;-42
2023/09/09 10:22:05;;;;;;;10.05;4.40;;;;;;;;;;6181193;23;20021;-44
2023/09/09 10:24:32;;;;;;;8.32;3.50;;;;;;;;;;6183395;23;20013;-43
2023/09/09 10:27:00;;;;;;;10.65;5.20;;;;;;;;;;6187298;23;20082;-42
2023/09/09 10:29:29;;;;;;;5.60;2.45;;;;;;;;;;6178882;23;20515;-43
2023/09/09 10:31:58;;;;;;;9.27;4.37;;;;;;;;;;6187191;23;20098;-43
2023/09/09 10:34:27;;;;;;;11.95;4.68;;;;;;;;;;6179291;23;20013;-42
2023/09/09 10:36:55;;;;;;;9.57;4.28;;;;;;;;;;6178379;23;20104;-44
2023/09/09 10:39:30;;;;;;;10.30;5.22;;;;;;;;;;6178460;23;20040;-44
2023/09/09 10:41:59;;;;;;;7.60;3.67;;;;;;;;;;6188062;23;20020;-44
2023/09/09 10:44:27;;;;;;;5.50;2.80;;;;;;;;;;6169557;23;20070;-44
2023/09/09 10:46:57;;;;;;;12.32;5.47;;;;;;;;;;6185572;23;20025;-44
2023/09/09 10:49:26;;;;;;;9.35;5.25;;;;;;;;;;6194725;23;20728;-42
2023/09/09 10:51:56;;;;;;;11.70;4.68;;;;;;;;;;6177211;23;20043;-42
2023/09/09 10:54:24;;;;;;;10.75;4.35;;;;;;;;;;6185986;23;20020;-44
2023/09/09 10:56:53;;;;;;;3.87;1.37;;;;;;;;;;6174870;23;20964;-47
2023/09/09 10:59:22;;;;;;;4.68;1.90;;;;;;;;;;6175148;23;20024;-42
2023/09/09 11:02:08;;;;;;;7.80;2.95;;;;;;;;;;6176224;23;20664;-45
2023/09/09 11:04:37;;;;;;;8.25;3.28;;;;;;;;;;6182775;23;20387;-45
2023/09/09 11:07:08;;;;;;;8.63;4.10;;;;;;;;;;6186237;23;20454;-45
2023/09/09 11:09:36;;;;;;;5.87;2.80;;;;;;;;;;6178631;23;20017;-42
2023/09/09 11:12:17;;;;;;;7.43;3.38;;;;;;;;;;6191062;23;20616;-42
2023/09/09 11:14:46;;;;;;;8.02;4.32;;;;;;;;;;6187050;23;20407;-42
2023/09/09 11:17:14;;;;;;;10.73;4.13;;;;;;;;;;6174283;23;20021;-43
2023/09/09 11:19:42;;;;;;;13.07;4.95;;;;;;;;;;6182075;23;20016;-45
2023/09/09 11:22:12;;;;;;;5.37;3.00;;;;;;;;;;6190547;23;20016;-42
2023/09/09 11:24:41;;;;;;;13.10;4.88;;;;;;;;;;6179261;23;20566;-42
2023/09/09 11:27:08;;;;;;;10.77;4.25;;;;;;;;;;6187151;23;20023;-42
2023/09/09 11:29:36;;;;;;;5.97;2.65;;;;;;;;;;6180560;23;20579;-42
2023/09/09 11:32:09;;;;;;;10.50;4.50;;;;;;;;;;6187680;23;20135;-43
2023/09/09 11:34:37;;;;;;;13.53;5.27;;;;;;;;;;6178619;23;20566;-42
2023/09/09 11:37:05;;;;;;;10.82;4.95;;;;;;;;;;6192358;23;20526;-45
2023/09/09 11:39:40;;;;;;;8.77;4.55;;;;;;;;;;6175144;23;20023;-43
2023/09/09 11:42:10;;;;;;;10.63;3.80;;;;;;;;;;6182865;23;20019;-43
2023/09/09 11:44:39;;;;;;;10.02;3.85;;;;;;;;;;6183710;23;20029;-43
2023/09/09 11:47:07;;;;;;;5.47;2.63;;;;;;;;;;6180823;23;20021;-44
2023/09/09 11:49:37;;;;;;;8.70;3.70;;;;;;;;;;6192911;23;20013;-44
2023/09/09 11:52:10;;;;;;;10.18;4.22;;;;;;;;;;6189604;23;20356;-42
2023/09/09 11:54:42;;;;;;;12.50;4.78;;;;;;;;;;6175474;23;20679;-41
2023/09/09 11:57:10;;;;;;;10.75;3.85;;;;;;;;;;6190114;23;20031;-42
2023/09/09 11:59:45;;;;;;;15.93;5.10;;;;;;;;;;6183038;23;20737;-42
2023/09/09 12:02:19;;;;;;;6.65;3.17;;;;;;;;;;6181919;23;20052;-42
2023/09/09 12:04:54;;;;;;;9.55;4.07;;;;;;;;;;6177673;23;20042;-46
2023/09/09 12:07:28;;;;;;;6.63;3.67;;;;;;;;;;6187760;23;20056;-43
2023/09/09 12:09:59;;;;;;;4.55;2.40;;;;;;;;;;6181293;23;20078;-42
2023/09/09 12:12:27;;;;;;;13.07;4.70;;;;;;;;;;6177975;23;20099;-44
2023/09/09 12:14:57;;;;;;;5.68;2.55;;;;;;;;;;6186232;23;20040;-43
2023/09/09 12:17:26;;;;;;;7.70;2.85;;;;;;;;;;6174109;23;20276;-42
2023/09/09 12:19:55;;;;;;;6.25;3.33;;;;;;;;;;6186994;23;20066;-42
2023/09/09 12:22:32;;;;;;;6.32;2.92;;;;;;;;;;6183901;23;20444;-42
2023/09/09 12:25:06;;;;;;;11.13;4.93;;;;;;;;;;6181077;23;20067;-42
2023/09/09 12:27:41;;;;;;;11.77;5.70;;;;;;;;;;6172425;23;20019;-43
2023/09/09 12:30:30;;;;;;;11.20;3.70;;;;;;;;;;6169815;23;20298;-42
2023/09/09 12:33:03;;;;;;;15.80;5.32;;;;;;;;;;6183233;23;20079;-45
2023/09/09 12:35:34;;;;;;;13.98;5.28;;;;;;;;;;6184550;23;20020;-44
2023/09/09 12:38:01;;;;;;;6.73;3.67;;;;;;;;;;6171038;23;20316;-42
2023/09/09 12:40:43;;;;;;;11.80;5.22;;;;;;;;;;6181003;23;20370;-42
2023/09/09 12:43:12;;;;;;;5.60;2.90;;;;;;;;;;6182365;23;20016;-43
2023/09/09 12:45:44;;;;;;;5.57;3.00;;;;;;;;;;6178768;23;20016;-44
2023/09/09 12:48:12;;;;;;;10.25;5.07;;;;;;;;;;6188281;23;20016;-42
2023/09/09 12:50:40;;;;;;;8.97;3.67;;;;;;;;;;6185370;23;20452;-42
2023/09/09 12:53:12;;;;;;;6.05;2.75;;;;;;;;;;6175675;23;20334;-43
2023/09/09 12:55:44;;;;;;;11.75;4.68;;;;;;;;;;6160967;23;20475;-42
2023/09/09 12:58:12;;;;;;;8.77;4.03;;;;;;;;;;6186141;23;20024;-42
2023/09/09 13:00:40;;;;;;;5.13;2.50;;;;;;;;;;6183657;23;20023;-43
2023/09/09 13:03:09;;;;;;;10.17;4.77;;;;;;;;;;6174925;23;20087;-42
2023/09/09 13:05:37;;;;;;;10.68;4.68;;;;;;;;;;6168707;23;20024;-44
2023/09/09 13:08:05;;;;;;;10.45;4.75;;;;;;;;;;6177115;23;20122;-42
2023/09/09 13:10:33;;;;;;;9.63;4.78;;;;;;;;;;6186303;23;20021;-43
2023/09/09 13:13:06;;;;;;;8.07;3.55;;;;;;;;;;6186259;23;20351;-44
2023/09/09 13:15:35;;;;;;;5.83;2.10;;;;;;;;;;6167090;23;20115;-42
2023/09/09 13:18:03;;;;;;;9.15;4.20;;;;;;;;;;6186518;23;20063;-43
2023/09/09 13:20:31;;;;;;;8.80;3.30;;;;;;;;;;6185012;23;20023;-44
2023/09/09 13:22:59;;;;;;;9.25;3.50;;;;;;;;;;6187147;23;20016;-43
2023/09/09 13:25:27;;;;;;;9.02;3.53;;;;;;;;;;6185755;23;20042;-42
2023/09/09 13:27:54;;;;;;;7.60;3.73;;;;;;;;;;6176866;23;20334;-42
2023/09/09 13:30:24;;;;;;;11.93;5.20;;;;;;;;;;6188286;23;20036;-43
2023/09/09 13:32:52;;;;;;;6.70;2.63;;;;;;;;;;6177093;23;20024;-42
2023/09/09 13:35:20;;;;;;;9.82;4.28;;;;;;;;;;6190489;23;20063;-42
2023/09/09 13:37:48;;;;;;;11.50;3.65;;;;;;;;;;6171218;23;20021;-44
2023/09/09 13:40:15;;;;;;;10.20;3.70;;;;;;;;;;6151969;23;20024;-44
2023/09/09 13:42:43;;;;;;;7.78;3.80;;;;;;;;;;6178513;23;20021;-41
2023/09/09 13:45:12;;;;;;;7.25;3.22;;;;;;;;;;6185091;23;20020;-41
2023/09/09 13:47:41;;;;;;;5.43;2.65;;;;;;;;;;6173864;23;20464;-42
2023/09/09 13:50:09;;;;;;;9.23;4.20;;;;;;;;;;6183076;23;20444;-42
2023/09/09 13:52:37;;;;;;;12.53;2.47;;;;;;;;;;6188667;23;20416;-45
2023/09/09 13:55:05;;;;;;;5.93;2.90;;;;;;;;;;6177843;23;20352;-42
2023/09/09 13:57:33;;;;;;;9.45;4.82;;;;;;;;;;6183746;23;20020;-45
2023/09/09 14:00:03;;;;;;;5.65;2.50;;;;;;;;;;6188538;23;20609;-43
2023/09/09 14:02:31;;;;;;;5.95;2.47;;;;;;;;;;6175686;23;20474;-43
2023/09/09 14:05:00;;;;;;;10.80;4.43;;;;;;;;;;6179841;23;20025;-42
2023/09/09 14:07:49;;;;;;;7.07;3.60;;;;;;;;;;6179427;23;20339;-43
2023/09/09 14:10:17;;;;;;;7.43;2.50;;;;;;;;;;6180240;23;20051;-43
2023/09/09 14:12:45;;;;;;;12.88;4.70;;;;;;;;;;6181816;23;20564;-44
2023/09/09 14:15:14;;;;;;;12.13;3.28;;;;;;;;;;6182870;23;20036;-42
2023/09/09 14:17:42;;;;;;;8.63;3.37;;;;;;;;;;6171303;23;20447;-43
2023/09/09 14:20:12;;;;;;;13.27;5.10;;;;;;;;;;6192181;23;20027;-43
2023/09/09 14:22:39;;;;;;;7.38;2.97;;;;;;;;;;6176933;23;20020;-42
2023/09/09 14:25:07;;;;;;;10.82;4.45;;;;;;;;;;6182408;23;20017;-43
2023/09/09 14:27:35;;;;;;;7.50;2.78;;;;;;;;;;6177216;23;20318;-43
2023/09/09 14:30:03;;;;;;;12.50;4.93;;;;;;;;;;6189099;23;20020;-42
2023/09/09 14:32:31;;;;;;;13.07;3.83;;;;;;;;;;6171096;23;20012;-44
2023/09/09 14:34:59;;;;;;;9.48;5.30;;;;;;;;;;6180327;23;20016;-43
2023/09/09 14:37:29;;;;;;;6.40;2.33;;;;;;;;;;6181334;23;20023;-43